Aérodrome :
LOGIN :

S'inscrire | Disclaimer

   EN    FR    IT 

 










Légende :    VFR   VFR Marginal   IFR   IFR Intensif   IFR Très Intensif
Visi : 
Plafond : 
>= 8 km
>= 3000ft
5 à 8 km
1000 à 3000 ft
1500m à 5 km
500 à 1000 ft
800 à 1500m
200 à 500 ft
< 800m
< 200 ft
Symboles :   Orages  Brouillard  Fortes neiges  Fortes précipitations  Vent > 20 kt
SIGMETs :   Divers  Orages  Givrage  Turbulence  Onde Orograph.  Cendres Volcan.






- Altitude de l'aérodrome : 459 ft
- Code IATA : CER


LFRC - Cherbourg / Maupertus

DERNIER METAR :
  • 061500Z AUTO 26024G36KT 5000 -DZ BR OVC006 11/11 Q1008 TEMPO RA

METARs EXPIRÉS :
  • 061430Z AUTO 25023G33KT 4000 -DZ BR OVC006 12/11 Q1008 TEMPO RA
  • 061400Z AUTO 24021KT 2700 -DZ BR OVC005 11/11 Q1008 BECMG 28025G40KT 9999 NSW BKN030
  • 061330Z AUTO 23020G30KT 3300 -DZ BR OVC006 11/11 Q1008 BECMG 28025G40KT 9999 NSW BKN030
  • 061300Z AUTO 23021KT 2600 -RA BR OVC006 11/11 Q1009 BECMG 26020G35KT 9999 NSW BKN030
  • 061230Z AUTO 23022G34KT 1800 1300 R28/P2000 +DZ BR OVC005 11/10 Q1009 BECMG 9999 NSW BKN030

TAF TAF LFRC
Valide du 06 à 15h jusqu'au 07 à 00h UTC


061400Z 0615/0624 24020G35KT 9999 BKN015
TEMPO 0615/0617 4000 RA BKN007
BECMG 0618/0621 26015G25KT
BECMG 0621/0624 28012KT



MET'MAP, la Météo Aéronautique d'un coup d'oeil ! - Copyright ORBIFLY Décembre 2007 - Disclaimer

ORBIFLY MET'MAP TEAM :

Programmation & Développement : Alexandra Zaïnal
Sur une idée originale de : Baudouin d'Aumeries
Assistance à la programmation : Marc-Olivier Méhu
Soutien technique & logistique : Manuel Goepfert

Contact : metmap@orbifly.com




SOURCES & CREDITS :

   NOAA